sensor_id;sensor_type;location;lat;lon;timestamp;P1;durP1;ratioP1;P2;durP2;ratioP2
18162;SDS011;9206;50.994;4.538;2023-07-16T00:01:16;4.15;;;2.15;;
18162;SDS011;9206;50.994;4.538;2023-07-16T00:04:04;9.85;;;2.13;;
18162;SDS011;9206;50.994;4.538;2023-07-16T00:06:59;5.38;;;2.28;;
18162;SDS011;9206;50.994;4.538;2023-07-16T00:09:53;5.38;;;2.80;;
18162;SDS011;9206;50.994;4.538;2023-07-16T00:12:40;10.93;;;2.50;;
18162;SDS011;9206;50.994;4.538;2023-07-16T00:15:29;4.45;;;2.20;;
18162;SDS011;9206;50.994;4.538;2023-07-16T00:18:18;3.28;;;2.15;;
18162;SDS011;9206;50.994;4.538;2023-07-16T00:21:05;10.15;;;2.35;;
18162;SDS011;9206;50.994;4.538;2023-07-16T00:23:52;8.15;;;2.65;;
18162;SDS011;9206;50.994;4.538;2023-07-16T00:26:41;8.55;;;2.72;;
18162;SDS011;9206;50.994;4.538;2023-07-16T00:29:28;6.50;;;1.95;;
18162;SDS011;9206;50.994;4.538;2023-07-16T00:32:17;3.20;;;2.45;;
18162;SDS011;9206;50.994;4.538;2023-07-16T00:35:05;6.20;;;2.33;;
18162;SDS011;9206;50.994;4.538;2023-07-16T00:37:53;13.40;;;3.10;;
18162;SDS011;9206;50.994;4.538;2023-07-16T00:40:40;5.60;;;2.83;;
18162;SDS011;9206;50.994;4.538;2023-07-16T00:43:27;7.00;;;3.10;;
18162;SDS011;9206;50.994;4.538;2023-07-16T00:46:15;7.38;;;2.50;;
18162;SDS011;9206;50.994;4.538;2023-07-16T00:49:09;6.30;;;2.40;;
18162;SDS011;9206;50.994;4.538;2023-07-16T00:51:58;7.45;;;2.83;;
18162;SDS011;9206;50.994;4.538;2023-07-16T00:54:46;5.63;;;3.33;;
18162;SDS011;9206;50.994;4.538;2023-07-16T00:57:37;9.85;;;3.78;;
18162;SDS011;9206;50.994;4.538;2023-07-16T01:03:18;8.52;;;2.80;;
18162;SDS011;9206;50.994;4.538;2023-07-16T01:06:10;10.65;;;2.92;;
18162;SDS011;9206;50.994;4.538;2023-07-16T01:09:02;8.82;;;2.67;;
18162;SDS011;9206;50.994;4.538;2023-07-16T01:11:52;8.43;;;2.72;;
18162;SDS011;9206;50.994;4.538;2023-07-16T01:14:47;6.13;;;2.80;;
18162;SDS011;9206;50.994;4.538;2023-07-16T01:17:36;7.83;;;2.70;;
18162;SDS011;9206;50.994;4.538;2023-07-16T01:20:24;8.57;;;2.80;;
18162;SDS011;9206;50.994;4.538;2023-07-16T01:23:18;6.10;;;2.85;;
18162;SDS011;9206;50.994;4.538;2023-07-16T01:26:39;10.02;;;3.05;;
18162;SDS011;9206;50.994;4.538;2023-07-16T01:29:51;3.33;;;2.23;;
18162;SDS011;9206;50.994;4.538;2023-07-16T01:32:50;6.22;;;2.67;;
18162;SDS011;9206;50.994;4.538;2023-07-16T01:35:44;12.45;;;3.13;;
18162;SDS011;9206;50.994;4.538;2023-07-16T01:38:32;7.40;;;2.90;;
18162;SDS011;9206;50.994;4.538;2023-07-16T01:41:23;6.73;;;3.13;;
18162;SDS011;9206;50.994;4.538;2023-07-16T01:44:12;6.57;;;3.40;;
18162;SDS011;9206;50.994;4.538;2023-07-16T01:47:08;6.83;;;2.50;;
18162;SDS011;9206;50.994;4.538;2023-07-16T01:49:56;17.17;;;3.63;;
18162;SDS011;9206;50.994;4.538;2023-07-16T01:52:43;5.32;;;3.00;;
18162;SDS011;9206;50.994;4.538;2023-07-16T01:55:31;6.03;;;3.92;;
18162;SDS011;9206;50.994;4.538;2023-07-16T01:58:18;3.67;;;3.15;;
18162;SDS011;9206;50.994;4.538;2023-07-16T02:01:07;6.63;;;3.57;;
18162;SDS011;9206;50.994;4.538;2023-07-16T02:03:57;11.07;;;4.00;;
18162;SDS011;9206;50.994;4.538;2023-07-16T02:06:46;6.50;;;3.20;;
18162;SDS011;9206;50.994;4.538;2023-07-16T02:09:34;14.03;;;3.77;;
18162;SDS011;9206;50.994;4.538;2023-07-16T02:12:21;9.33;;;3.50;;
18162;SDS011;9206;50.994;4.538;2023-07-16T02:15:16;6.70;;;3.50;;
18162;SDS011;9206;50.994;4.538;2023-07-16T02:18:07;8.60;;;3.90;;
18162;SDS011;9206;50.994;4.538;2023-07-16T02:20:56;3.87;;;3.50;;
18162;SDS011;9206;50.994;4.538;2023-07-16T02:23:43;8.80;;;3.83;;
18162;SDS011;9206;50.994;4.538;2023-07-16T02:26:32;4.38;;;2.92;;
18162;SDS011;9206;50.994;4.538;2023-07-16T02:29:19;6.97;;;3.80;;
18162;SDS011;9206;50.994;4.538;2023-07-16T02:32:08;6.68;;;3.55;;
18162;SDS011;9206;50.994;4.538;2023-07-16T02:34:57;7.90;;;3.63;;
18162;SDS011;9206;50.994;4.538;2023-07-16T02:37:56;7.53;;;3.63;;
18162;SDS011;9206;50.994;4.538;2023-07-16T02:40:44;6.47;;;4.30;;
18162;SDS011;9206;50.994;4.538;2023-07-16T02:43:33;8.60;;;3.40;;
18162;SDS011;9206;50.994;4.538;2023-07-16T02:46:22;6.17;;;3.40;;
18162;SDS011;9206;50.994;4.538;2023-07-16T02:49:11;7.37;;;3.40;;
18162;SDS011;9206;50.994;4.538;2023-07-16T02:51:59;14.10;;;4.33;;
18162;SDS011;9206;50.994;4.538;2023-07-16T02:54:49;6.77;;;3.77;;
18162;SDS011;9206;50.994;4.538;2023-07-16T02:57:43;7.23;;;4.03;;
18162;SDS011;9206;50.994;4.538;2023-07-16T03:00:30;11.57;;;4.73;;
18162;SDS011;9206;50.994;4.538;2023-07-16T03:03:23;8.13;;;4.73;;
18162;SDS011;9206;50.994;4.538;2023-07-16T03:06:12;7.20;;;3.97;;
18162;SDS011;9206;50.994;4.538;2023-07-16T03:08:59;4.33;;;3.93;;
18162;SDS011;9206;50.994;4.538;2023-07-16T03:11:48;8.13;;;5.03;;
18162;SDS011;9206;50.994;4.538;2023-07-16T03:14:39;12.67;;;5.40;;
18162;SDS011;9206;50.994;4.538;2023-07-16T03:17:33;6.40;;;4.47;;
18162;SDS011;9206;50.994;4.538;2023-07-16T03:20:22;13.67;;;5.10;;
18162;SDS011;9206;50.994;4.538;2023-07-16T03:26:01;12.37;;;5.50;;
18162;SDS011;9206;50.994;4.538;2023-07-16T03:31:40;7.13;;;5.00;;
18162;SDS011;9206;50.994;4.538;2023-07-16T03:34:28;13.77;;;5.40;;
18162;SDS011;9206;50.994;4.538;2023-07-16T03:37:17;6.53;;;4.97;;
18162;SDS011;9206;50.994;4.538;2023-07-16T03:40:16;5.27;;;4.63;;
18162;SDS011;9206;50.994;4.538;2023-07-16T03:43:07;8.17;;;5.20;;
18162;SDS011;9206;50.994;4.538;2023-07-16T03:45:59;11.67;;;4.63;;
18162;SDS011;9206;50.994;4.538;2023-07-16T03:48:50;10.30;;;5.03;;
18162;SDS011;9206;50.994;4.538;2023-07-16T03:51:41;8.47;;;5.47;;
18162;SDS011;9206;50.994;4.538;2023-07-16T03:54:29;10.63;;;5.43;;
18162;SDS011;9206;50.994;4.538;2023-07-16T03:57:17;7.70;;;5.23;;
18162;SDS011;9206;50.994;4.538;2023-07-16T04:00:08;5.95;;;4.60;;
18162;SDS011;9206;50.994;4.538;2023-07-16T04:03:05;10.10;;;5.10;;
18162;SDS011;9206;50.994;4.538;2023-07-16T04:06:00;10.17;;;4.33;;
18162;SDS011;9206;50.994;4.538;2023-07-16T04:08:48;7.73;;;4.70;;
18162;SDS011;9206;50.994;4.538;2023-07-16T04:11:41;10.07;;;4.95;;
18162;SDS011;9206;50.994;4.538;2023-07-16T04:14:29;8.40;;;5.07;;
18162;SDS011;9206;50.994;4.538;2023-07-16T04:17:22;9.70;;;5.70;;
18162;SDS011;9206;50.994;4.538;2023-07-16T04:20:16;8.10;;;4.90;;
18162;SDS011;9206;50.994;4.538;2023-07-16T04:23:03;5.30;;;4.60;;
18162;SDS011;9206;50.994;4.538;2023-07-16T04:25:53;7.37;;;4.50;;
18162;SDS011;9206;50.994;4.538;2023-07-16T04:28:48;7.23;;;4.67;;
18162;SDS011;9206;50.994;4.538;2023-07-16T04:31:36;7.35;;;4.95;;
18162;SDS011;9206;50.994;4.538;2023-07-16T04:34:24;6.07;;;5.47;;
18162;SDS011;9206;50.994;4.538;2023-07-16T04:37:15;10.30;;;5.60;;
18162;SDS011;9206;50.994;4.538;2023-07-16T04:40:03;9.13;;;5.25;;
18162;SDS011;9206;50.994;4.538;2023-07-16T04:42:57;11.13;;;5.60;;
18162;SDS011;9206;50.994;4.538;2023-07-16T04:45:45;10.70;;;5.80;;
18162;SDS011;9206;50.994;4.538;2023-07-16T04:48:33;6.10;;;5.50;;
18162;SDS011;9206;50.994;4.538;2023-07-16T04:51:26;12.17;;;5.67;;
18162;SDS011;9206;50.994;4.538;2023-07-16T04:54:20;11.25;;;5.75;;
18162;SDS011;9206;50.994;4.538;2023-07-16T05:00:21;11.97;;;5.80;;
18162;SDS011;9206;50.994;4.538;2023-07-16T05:03:17;9.03;;;5.90;;
18162;SDS011;9206;50.994;4.538;2023-07-16T05:06:05;13.13;;;5.87;;
18162;SDS011;9206;50.994;4.538;2023-07-16T05:08:52;8.53;;;5.57;;
18162;SDS011;9206;50.994;4.538;2023-07-16T05:11:42;9.43;;;5.20;;
18162;SDS011;9206;50.994;4.538;2023-07-16T05:14:29;8.70;;;5.53;;
18162;SDS011;9206;50.994;4.538;2023-07-16T05:17:20;8.60;;;5.90;;
18162;SDS011;9206;50.994;4.538;2023-07-16T05:20:19;13.50;;;5.97;;
18162;SDS011;9206;50.994;4.538;2023-07-16T05:23:12;7.07;;;6.20;;
18162;SDS011;9206;50.994;4.538;2023-07-16T05:26:02;10.82;;;6.20;;
18162;SDS011;9206;50.994;4.538;2023-07-16T05:28:54;13.10;;;6.60;;
18162;SDS011;9206;50.994;4.538;2023-07-16T05:31:47;10.68;;;6.68;;
18162;SDS011;9206;50.994;4.538;2023-07-16T05:34:34;8.52;;;6.35;;
18162;SDS011;9206;50.994;4.538;2023-07-16T05:37:22;8.55;;;6.22;;
18162;SDS011;9206;50.994;4.538;2023-07-16T05:40:09;8.15;;;6.15;;
18162;SDS011;9206;50.994;4.538;2023-07-16T05:45:56;9.38;;;6.25;;
18162;SDS011;9206;50.994;4.538;2023-07-16T05:48:46;17.50;;;6.82;;
18162;SDS011;9206;50.994;4.538;2023-07-16T05:51:40;8.60;;;6.43;;
18162;SDS011;9206;50.994;4.538;2023-07-16T05:54:38;11.38;;;6.65;;
18162;SDS011;9206;50.994;4.538;2023-07-16T05:57:27;11.68;;;6.45;;
18162;SDS011;9206;50.994;4.538;2023-07-16T06:00:16;11.18;;;6.60;;
18162;SDS011;9206;50.994;4.538;2023-07-16T06:03:06;13.65;;;7.13;;
18162;SDS011;9206;50.994;4.538;2023-07-16T06:06:10;15.90;;;6.80;;
18162;SDS011;9206;50.994;4.538;2023-07-16T06:08:57;13.15;;;6.88;;
18162;SDS011;9206;50.994;4.538;2023-07-16T06:11:52;10.63;;;5.90;;
18162;SDS011;9206;50.994;4.538;2023-07-16T06:14:41;10.10;;;6.63;;
18162;SDS011;9206;50.994;4.538;2023-07-16T06:17:43;16.55;;;6.40;;
18162;SDS011;9206;50.994;4.538;2023-07-16T06:20:34;8.57;;;6.35;;
18162;SDS011;9206;50.994;4.538;2023-07-16T06:23:24;13.40;;;6.13;;
18162;SDS011;9206;50.994;4.538;2023-07-16T06:26:14;15.05;;;6.88;;
18162;SDS011;9206;50.994;4.538;2023-07-16T06:32:21;12.95;;;6.60;;
18162;SDS011;9206;50.994;4.538;2023-07-16T06:35:22;9.20;;;6.10;;
18162;SDS011;9206;50.994;4.538;2023-07-16T06:38:13;11.50;;;6.15;;
18162;SDS011;9206;50.994;4.538;2023-07-16T06:41:00;10.40;;;6.40;;
18162;SDS011;9206;50.994;4.538;2023-07-16T06:43:53;11.32;;;5.85;;
18162;SDS011;9206;50.994;4.538;2023-07-16T06:46:41;12.10;;;5.93;;
18162;SDS011;9206;50.994;4.538;2023-07-16T06:49:32;10.80;;;6.30;;
18162;SDS011;9206;50.994;4.538;2023-07-16T06:52:33;7.63;;;5.57;;
18162;SDS011;9206;50.994;4.538;2023-07-16T06:55:26;7.60;;;6.03;;
18162;SDS011;9206;50.994;4.538;2023-07-16T06:58:15;8.77;;;6.57;;
18162;SDS011;9206;50.994;4.538;2023-07-16T07:01:21;10.30;;;6.07;;
18162;SDS011;9206;50.994;4.538;2023-07-16T07:04:23;9.20;;;5.90;;
18162;SDS011;9206;50.994;4.538;2023-07-16T07:07:24;8.32;;;5.53;;
18162;SDS011;9206;50.994;4.538;2023-07-16T07:10:19;7.85;;;5.60;;
18162;SDS011;9206;50.994;4.538;2023-07-16T07:13:10;10.13;;;5.68;;
18162;SDS011;9206;50.994;4.538;2023-07-16T07:16:07;8.77;;;5.60;;
18162;SDS011;9206;50.994;4.538;2023-07-16T07:19:01;9.90;;;5.95;;
18162;SDS011;9206;50.994;4.538;2023-07-16T07:22:28;7.72;;;5.35;;
18162;SDS011;9206;50.994;4.538;2023-07-16T07:25:25;9.95;;;5.72;;
18162;SDS011;9206;50.994;4.538;2023-07-16T07:34:41;9.73;;;5.88;;
18162;SDS011;9206;50.994;4.538;2023-07-16T07:37:30;5.65;;;4.82;;
18162;SDS011;9206;50.994;4.538;2023-07-16T07:43:36;9.85;;;6.10;;
18162;SDS011;9206;50.994;4.538;2023-07-16T07:46:31;6.97;;;5.75;;
18162;SDS011;9206;50.994;4.538;2023-07-16T07:49:53;8.05;;;5.82;;
18162;SDS011;9206;50.994;4.538;2023-07-16T07:56:40;6.13;;;5.43;;
18162;SDS011;9206;50.994;4.538;2023-07-16T07:59:46;8.18;;;4.90;;
18162;SDS011;9206;50.994;4.538;2023-07-16T08:02:40;6.78;;;5.30;;
18162;SDS011;9206;50.994;4.538;2023-07-16T08:05:40;6.43;;;4.88;;
18162;SDS011;9206;50.994;4.538;2023-07-16T08:08:35;5.68;;;5.15;;
18162;SDS011;9206;50.994;4.538;2023-07-16T08:11:33;8.35;;;5.13;;
18162;SDS011;9206;50.994;4.538;2023-07-16T08:14:26;7.63;;;5.53;;
18162;SDS011;9206;50.994;4.538;2023-07-16T08:17:15;7.50;;;5.55;;
18162;SDS011;9206;50.994;4.538;2023-07-16T08:20:28;6.32;;;5.50;;
18162;SDS011;9206;50.994;4.538;2023-07-16T08:24:45;13.15;;;5.70;;
18162;SDS011;9206;50.994;4.538;2023-07-16T08:27:50;8.55;;;5.05;;
18162;SDS011;9206;50.994;4.538;2023-07-16T08:31:32;9.38;;;5.57;;
18162;SDS011;9206;50.994;4.538;2023-07-16T08:34:29;6.63;;;5.05;;
18162;SDS011;9206;50.994;4.538;2023-07-16T08:37:19;7.63;;;4.82;;
18162;SDS011;9206;50.994;4.538;2023-07-16T08:40:23;7.22;;;5.05;;
18162;SDS011;9206;50.994;4.538;2023-07-16T08:43:14;5.88;;;5.38;;
18162;SDS011;9206;50.994;4.538;2023-07-16T08:46:11;7.07;;;4.78;;
18162;SDS011;9206;50.994;4.538;2023-07-16T08:49:01;6.10;;;4.43;;
18162;SDS011;9206;50.994;4.538;2023-07-16T08:52:00;5.10;;;4.38;;
18162;SDS011;9206;50.994;4.538;2023-07-16T08:54:51;6.55;;;4.47;;
18162;SDS011;9206;50.994;4.538;2023-07-16T08:57:41;5.35;;;4.85;;
18162;SDS011;9206;50.994;4.538;2023-07-16T09:00:32;7.13;;;6.43;;
18162;SDS011;9206;50.994;4.538;2023-07-16T09:03:37;7.28;;;5.10;;
18162;SDS011;9206;50.994;4.538;2023-07-16T09:06:25;7.72;;;5.00;;
18162;SDS011;9206;50.994;4.538;2023-07-16T09:09:19;9.80;;;5.00;;
18162;SDS011;9206;50.994;4.538;2023-07-16T09:12:15;5.35;;;4.80;;
18162;SDS011;9206;50.994;4.538;2023-07-16T09:21:22;7.25;;;5.63;;
18162;SDS011;9206;50.994;4.538;2023-07-16T09:24:11;7.45;;;4.50;;
18162;SDS011;9206;50.994;4.538;2023-07-16T09:30:01;5.65;;;4.55;;
18162;SDS011;9206;50.994;4.538;2023-07-16T09:32:54;5.70;;;5.05;;
18162;SDS011;9206;50.994;4.538;2023-07-16T09:35:48;5.78;;;4.80;;
18162;SDS011;9206;50.994;4.538;2023-07-16T09:38:39;6.63;;;4.30;;
18162;SDS011;9206;50.994;4.538;2023-07-16T09:41:34;6.05;;;4.78;;
18162;SDS011;9206;50.994;4.538;2023-07-16T09:44:28;5.88;;;4.25;;
18162;SDS011;9206;50.994;4.538;2023-07-16T09:47:51;6.25;;;4.85;;
18162;SDS011;9206;50.994;4.538;2023-07-16T09:50:54;8.65;;;4.32;;
18162;SDS011;9206;50.994;4.538;2023-07-16T09:53:50;9.75;;;4.97;;
18162;SDS011;9206;50.994;4.538;2023-07-16T09:56:48;5.90;;;5.15;;
18162;SDS011;9206;50.994;4.538;2023-07-16T10:00:05;9.43;;;5.15;;
18162;SDS011;9206;50.994;4.538;2023-07-16T10:06:52;7.32;;;3.97;;
18162;SDS011;9206;50.994;4.538;2023-07-16T10:09:54;7.43;;;4.93;;
18162;SDS011;9206;50.994;4.538;2023-07-16T10:12:54;5.80;;;5.22;;
18162;SDS011;9206;50.994;4.538;2023-07-16T10:15:53;12.20;;;5.10;;
18162;SDS011;9206;50.994;4.538;2023-07-16T10:18:58;11.20;;;5.22;;
18162;SDS011;9206;50.994;4.538;2023-07-16T10:21:59;9.52;;;5.43;;
18162;SDS011;9206;50.994;4.538;2023-07-16T10:24:56;7.95;;;5.05;;
18162;SDS011;9206;50.994;4.538;2023-07-16T10:27:50;10.05;;;5.72;;
18162;SDS011;9206;50.994;4.538;2023-07-16T10:30:44;11.05;;;5.97;;
18162;SDS011;9206;50.994;4.538;2023-07-16T10:33:31;10.40;;;5.22;;
18162;SDS011;9206;50.994;4.538;2023-07-16T10:36:23;7.53;;;5.28;;
18162;SDS011;9206;50.994;4.538;2023-07-16T10:39:11;7.95;;;5.00;;
18162;SDS011;9206;50.994;4.538;2023-07-16T10:42:09;7.35;;;4.80;;
18162;SDS011;9206;50.994;4.538;2023-07-16T10:45:01;6.60;;;4.68;;
18162;SDS011;9206;50.994;4.538;2023-07-16T10:47:53;9.48;;;5.28;;
18162;SDS011;9206;50.994;4.538;2023-07-16T10:50:47;10.98;;;4.90;;
18162;SDS011;9206;50.994;4.538;2023-07-16T10:53:48;9.48;;;4.82;;
18162;SDS011;9206;50.994;4.538;2023-07-16T10:56:36;7.50;;;4.32;;
18162;SDS011;9206;50.994;4.538;2023-07-16T10:59:39;5.50;;;4.43;;
18162;SDS011;9206;50.994;4.538;2023-07-16T11:02:29;14.48;;;4.78;;
18162;SDS011;9206;50.994;4.538;2023-07-16T11:05:50;9.98;;;4.72;;
18162;SDS011;9206;50.994;4.538;2023-07-16T11:15:30;7.68;;;4.50;;
18162;SDS011;9206;50.994;4.538;2023-07-16T11:24:16;7.88;;;5.03;;
18162;SDS011;9206;50.994;4.538;2023-07-16T11:30:27;8.90;;;4.45;;
18162;SDS011;9206;50.994;4.538;2023-07-16T11:33:16;5.10;;;3.90;;
18162;SDS011;9206;50.994;4.538;2023-07-16T11:36:11;4.93;;;4.20;;
18162;SDS011;9206;50.994;4.538;2023-07-16T11:38:59;5.88;;;3.90;;
18162;SDS011;9206;50.994;4.538;2023-07-16T11:41:57;5.38;;;3.38;;
18162;SDS011;9206;50.994;4.538;2023-07-16T11:44:48;7.47;;;3.03;;
18162;SDS011;9206;50.994;4.538;2023-07-16T11:47:41;5.65;;;3.25;;
18162;SDS011;9206;50.994;4.538;2023-07-16T11:51:21;5.03;;;3.35;;
18162;SDS011;9206;50.994;4.538;2023-07-16T12:01:25;5.78;;;3.65;;
18162;SDS011;9206;50.994;4.538;2023-07-16T12:04:14;4.32;;;3.92;;
18162;SDS011;9206;50.994;4.538;2023-07-16T12:07:03;6.03;;;4.00;;
18162;SDS011;9206;50.994;4.538;2023-07-16T12:09:52;5.55;;;3.83;;
18162;SDS011;9206;50.994;4.538;2023-07-16T12:12:45;5.38;;;4.35;;
18162;SDS011;9206;50.994;4.538;2023-07-16T12:15:38;4.90;;;4.28;;
18162;SDS011;9206;50.994;4.538;2023-07-16T12:18:28;5.00;;;3.80;;
18162;SDS011;9206;50.994;4.538;2023-07-16T12:21:19;5.25;;;3.63;;
18162;SDS011;9206;50.994;4.538;2023-07-16T12:24:13;5.68;;;4.07;;
18162;SDS011;9206;50.994;4.538;2023-07-16T12:27:00;4.95;;;3.25;;
18162;SDS011;9206;50.994;4.538;2023-07-16T12:29:53;5.03;;;3.53;;
18162;SDS011;9206;50.994;4.538;2023-07-16T12:32:55;5.82;;;3.60;;
18162;SDS011;9206;50.994;4.538;2023-07-16T12:35:51;3.65;;;3.35;;
18162;SDS011;9206;50.994;4.538;2023-07-16T12:38:42;5.30;;;3.47;;
18162;SDS011;9206;50.994;4.538;2023-07-16T12:41:32;4.18;;;3.47;;
18162;SDS011;9206;50.994;4.538;2023-07-16T13:15:26;4.55;;;3.10;;
18162;SDS011;9206;50.994;4.538;2023-07-16T13:18:13;5.75;;;2.72;;
18162;SDS011;9206;50.994;4.538;2023-07-16T13:24:00;4.57;;;2.70;;
18162;SDS011;9206;50.994;4.538;2023-07-16T13:26:48;3.03;;;2.53;;
18162;SDS011;9206;50.994;4.538;2023-07-16T13:29:35;5.50;;;2.60;;
18162;SDS011;9206;50.994;4.538;2023-07-16T13:32:26;4.22;;;2.80;;
18162;SDS011;9206;50.994;4.538;2023-07-16T13:35:15;5.13;;;3.03;;
18162;SDS011;9206;50.994;4.538;2023-07-16T13:38:04;3.83;;;2.78;;
18162;SDS011;9206;50.994;4.538;2023-07-16T13:40:52;3.35;;;2.95;;
18162;SDS011;9206;50.994;4.538;2023-07-16T13:43:46;3.60;;;2.75;;
18162;SDS011;9206;50.994;4.538;2023-07-16T13:46:34;3.17;;;2.80;;
18162;SDS011;9206;50.994;4.538;2023-07-16T13:49:29;2.53;;;2.33;;
18162;SDS011;9206;50.994;4.538;2023-07-16T13:52:16;2.35;;;2.15;;
18162;SDS011;9206;50.994;4.538;2023-07-16T13:55:04;4.72;;;2.60;;
18162;SDS011;9206;50.994;4.538;2023-07-16T13:57:58;3.25;;;2.47;;
18162;SDS011;9206;50.994;4.538;2023-07-16T14:00:48;2.45;;;2.13;;
18162;SDS011;9206;50.994;4.538;2023-07-16T14:03:38;2.30;;;2.10;;
18162;SDS011;9206;50.994;4.538;2023-07-16T14:06:28;3.40;;;2.30;;
18162;SDS011;9206;50.994;4.538;2023-07-16T14:09:22;2.28;;;1.95;;
18162;SDS011;9206;50.994;4.538;2023-07-16T14:12:09;2.03;;;1.50;;
18162;SDS011;9206;50.994;4.538;2023-07-16T14:14:59;1.85;;;1.75;;
18162;SDS011;9206;50.994;4.538;2023-07-16T14:17:54;5.82;;;2.45;;
18162;SDS011;9206;50.994;4.538;2023-07-16T14:20:43;2.25;;;2.08;;
18162;SDS011;9206;50.994;4.538;2023-07-16T14:23:35;3.00;;;2.00;;
18162;SDS011;9206;50.994;4.538;2023-07-16T14:26:25;2.20;;;2.08;;
18162;SDS011;9206;50.994;4.538;2023-07-16T14:29:15;2.97;;;2.22;;
18162;SDS011;9206;50.994;4.538;2023-07-16T14:32:03;3.85;;;2.13;;
18162;SDS011;9206;50.994;4.538;2023-07-16T14:34:57;2.85;;;1.90;;
18162;SDS011;9206;50.994;4.538;2023-07-16T14:37:50;2.85;;;2.30;;
18162;SDS011;9206;50.994;4.538;2023-07-16T14:40:41;4.00;;;2.10;;
18162;SDS011;9206;50.994;4.538;2023-07-16T14:43:34;3.58;;;2.60;;
18162;SDS011;9206;50.994;4.538;2023-07-16T14:46:23;2.25;;;1.83;;
18162;SDS011;9206;50.994;4.538;2023-07-16T14:49:16;2.78;;;2.20;;
18162;SDS011;9206;50.994;4.538;2023-07-16T14:52:04;3.40;;;2.00;;
18162;SDS011;9206;50.994;4.538;2023-07-16T14:54:53;2.80;;;2.22;;
18162;SDS011;9206;50.994;4.538;2023-07-16T14:57:42;1.50;;;1.40;;
18162;SDS011;9206;50.994;4.538;2023-07-16T15:00:34;3.90;;;1.90;;
18162;SDS011;9206;50.994;4.538;2023-07-16T15:03:22;2.20;;;2.00;;
18162;SDS011;9206;50.994;4.538;2023-07-16T15:06:11;3.65;;;1.70;;
18162;SDS011;9206;50.994;4.538;2023-07-16T15:08:59;2.38;;;1.85;;
18162;SDS011;9206;50.994;4.538;2023-07-16T15:11:47;2.15;;;1.85;;
18162;SDS011;9206;50.994;4.538;2023-07-16T15:14:37;1.65;;;1.55;;
18162;SDS011;9206;50.994;4.538;2023-07-16T15:17:24;2.08;;;1.75;;
18162;SDS011;9206;50.994;4.538;2023-07-16T15:20:18;4.32;;;2.25;;
18162;SDS011;9206;50.994;4.538;2023-07-16T15:23:13;2.78;;;1.90;;
18162;SDS011;9206;50.994;4.538;2023-07-16T15:26:03;1.80;;;1.70;;
18162;SDS011;9206;50.994;4.538;2023-07-16T15:28:58;2.70;;;1.60;;
18162;SDS011;9206;50.994;4.538;2023-07-16T15:31:52;1.70;;;1.60;;
18162;SDS011;9206;50.994;4.538;2023-07-16T15:34:41;2.55;;;1.60;;
18162;SDS011;9206;50.994;4.538;2023-07-16T15:37:29;1.75;;;1.55;;
18162;SDS011;9206;50.994;4.538;2023-07-16T15:40:22;2.10;;;1.90;;
18162;SDS011;9206;50.994;4.538;2023-07-16T15:43:16;1.83;;;1.73;;
18162;SDS011;9206;50.994;4.538;2023-07-16T15:48:55;1.60;;;1.50;;
18162;SDS011;9206;50.994;4.538;2023-07-16T15:51:43;4.00;;;1.70;;
18162;SDS011;9206;50.994;4.538;2023-07-16T15:54:34;3.35;;;3.05;;
18162;SDS011;9206;50.994;4.538;2023-07-16T15:57:24;1.70;;;1.60;;
18162;SDS011;9206;50.994;4.538;2023-07-16T16:00:15;1.83;;;1.73;;
18162;SDS011;9206;50.994;4.538;2023-07-16T16:03:08;2.75;;;1.60;;
18162;SDS011;9206;50.994;4.538;2023-07-16T16:06:02;1.80;;;1.70;;
18162;SDS011;9206;50.994;4.538;2023-07-16T16:08:52;1.80;;;1.42;;
18162;SDS011;9206;50.994;4.538;2023-07-16T16:11:41;1.50;;;1.40;;
18162;SDS011;9206;50.994;4.538;2023-07-16T16:14:29;2.67;;;1.50;;
18162;SDS011;9206;50.994;4.538;2023-07-16T16:20:18;1.73;;;1.60;;
18162;SDS011;9206;50.994;4.538;2023-07-16T16:23:09;2.63;;;1.90;;
18162;SDS011;9206;50.994;4.538;2023-07-16T16:26:10;3.58;;;1.45;;
18162;SDS011;9206;50.994;4.538;2023-07-16T16:28:58;1.48;;;1.38;;
18162;SDS011;9206;50.994;4.538;2023-07-16T16:34:48;1.80;;;1.48;;
18162;SDS011;9206;50.994;4.538;2023-07-16T16:37:43;2.10;;;1.60;;
18162;SDS011;9206;50.994;4.538;2023-07-16T16:40:39;2.70;;;1.50;;
18162;SDS011;9206;50.994;4.538;2023-07-16T16:43:34;2.28;;;1.40;;
18162;SDS011;9206;50.994;4.538;2023-07-16T16:46:24;7.43;;;6.43;;
18162;SDS011;9206;50.994;4.538;2023-07-16T16:49:13;1.80;;;1.60;;
18162;SDS011;9206;50.994;4.538;2023-07-16T16:52:09;3.10;;;1.75;;
18162;SDS011;9206;50.994;4.538;2023-07-16T16:55:23;1.63;;;1.48;;
18162;SDS011;9206;50.994;4.538;2023-07-16T16:58:28;2.22;;;2.03;;
18162;SDS011;9206;50.994;4.538;2023-07-16T17:01:16;3.17;;;2.95;;
18162;SDS011;9206;50.994;4.538;2023-07-16T17:04:11;2.28;;;1.80;;
18162;SDS011;9206;50.994;4.538;2023-07-16T17:07:05;2.78;;;2.58;;
18162;SDS011;9206;50.994;4.538;2023-07-16T17:09:56;5.47;;;5.07;;
18162;SDS011;9206;50.994;4.538;2023-07-16T17:12:51;2.17;;;1.63;;
18162;SDS011;9206;50.994;4.538;2023-07-16T17:15:46;2.55;;;2.00;;
18162;SDS011;9206;50.994;4.538;2023-07-16T17:18:39;1.90;;;1.80;;
18162;SDS011;9206;50.994;4.538;2023-07-16T17:21:49;1.70;;;1.60;;
18162;SDS011;9206;50.994;4.538;2023-07-16T17:24:39;3.72;;;1.80;;
18162;SDS011;9206;50.994;4.538;2023-07-16T17:27:29;1.92;;;1.75;;
18162;SDS011;9206;50.994;4.538;2023-07-16T17:30:20;1.50;;;1.40;;
18162;SDS011;9206;50.994;4.538;2023-07-16T17:33:09;2.40;;;1.88;;
18162;SDS011;9206;50.994;4.538;2023-07-16T17:35:59;2.10;;;1.80;;
18162;SDS011;9206;50.994;4.538;2023-07-16T17:38:52;3.95;;;3.60;;
18162;SDS011;9206;50.994;4.538;2023-07-16T17:41:41;2.10;;;1.92;;
18162;SDS011;9206;50.994;4.538;2023-07-16T17:44:41;2.05;;;1.77;;
18162;SDS011;9206;50.994;4.538;2023-07-16T17:47:34;3.45;;;2.40;;
18162;SDS011;9206;50.994;4.538;2023-07-16T17:50:24;2.05;;;1.85;;
18162;SDS011;9206;50.994;4.538;2023-07-16T17:53:19;4.25;;;2.65;;
18162;SDS011;9206;50.994;4.538;2023-07-16T17:56:10;5.15;;;1.55;;
18162;SDS011;9206;50.994;4.538;2023-07-16T17:59:04;1.77;;;1.67;;
18162;SDS011;9206;50.994;4.538;2023-07-16T18:01:55;2.17;;;1.80;;
18162;SDS011;9206;50.994;4.538;2023-07-16T18:04:46;3.30;;;2.33;;
18162;SDS011;9206;50.994;4.538;2023-07-16T18:07:40;3.97;;;2.13;;
18162;SDS011;9206;50.994;4.538;2023-07-16T18:10:29;2.38;;;1.70;;
18162;SDS011;9206;50.994;4.538;2023-07-16T18:13:17;2.03;;;1.50;;
18162;SDS011;9206;50.994;4.538;2023-07-16T18:16:07;2.42;;;2.03;;
18162;SDS011;9206;50.994;4.538;2023-07-16T18:19:00;1.80;;;1.70;;
18162;SDS011;9206;50.994;4.538;2023-07-16T18:21:50;4.57;;;1.63;;
18162;SDS011;9206;50.994;4.538;2023-07-16T18:24:49;4.97;;;2.00;;
18162;SDS011;9206;50.994;4.538;2023-07-16T18:27:54;2.38;;;2.08;;
18162;SDS011;9206;50.994;4.538;2023-07-16T18:30:49;2.10;;;1.90;;
18162;SDS011;9206;50.994;4.538;2023-07-16T18:33:41;1.90;;;1.70;;
18162;SDS011;9206;50.994;4.538;2023-07-16T18:36:33;2.70;;;2.03;;
18162;SDS011;9206;50.994;4.538;2023-07-16T18:39:22;2.10;;;1.67;;
18162;SDS011;9206;50.994;4.538;2023-07-16T18:42:12;2.75;;;1.80;;
18162;SDS011;9206;50.994;4.538;2023-07-16T18:45:06;2.35;;;1.77;;
18162;SDS011;9206;50.994;4.538;2023-07-16T18:48:02;2.25;;;1.70;;
18162;SDS011;9206;50.994;4.538;2023-07-16T18:51:17;1.88;;;1.77;;
18162;SDS011;9206;50.994;4.538;2023-07-16T18:54:07;1.90;;;1.70;;
18162;SDS011;9206;50.994;4.538;2023-07-16T18:56:55;1.70;;;1.60;;
18162;SDS011;9206;50.994;4.538;2023-07-16T18:59:45;2.25;;;1.90;;
18162;SDS011;9206;50.994;4.538;2023-07-16T19:02:32;3.00;;;1.70;;
18162;SDS011;9206;50.994;4.538;2023-07-16T19:05:26;2.60;;;1.90;;
18162;SDS011;9206;50.994;4.538;2023-07-16T19:08:16;2.50;;;2.30;;
18162;SDS011;9206;50.994;4.538;2023-07-16T19:11:33;2.05;;;1.83;;
18162;SDS011;9206;50.994;4.538;2023-07-16T19:17:22;3.67;;;1.95;;
18162;SDS011;9206;50.994;4.538;2023-07-16T19:20:20;3.13;;;1.83;;
18162;SDS011;9206;50.994;4.538;2023-07-16T19:26:09;3.30;;;1.88;;
18162;SDS011;9206;50.994;4.538;2023-07-16T19:28:56;2.25;;;2.10;;
18162;SDS011;9206;50.994;4.538;2023-07-16T19:31:43;2.20;;;1.70;;
18162;SDS011;9206;50.994;4.538;2023-07-16T19:34:45;2.90;;;1.92;;